New Century 1 — H9LA — position and weather

sailwx.info

Track history (hours):
 
Tides and Currents Weather Stations Pressure Air Temp Water Temp Dewpoint Dewpoint Depression Visibility Wind Speed Wind Dir Waves Ship Positions

New Century 1

Last reported at 2015-May-19 11:33 UTC. Time now 2015-May-27 09:52 UTC.
Position N 37°41' W 071°25'.

Length 200 m; beam 32.3 m.

Type: Cargo ship. MMSI: 355234000.

Date/timePositionNaut miles runAvg speedWind from/ knotsBaromVisibWave heightAir tempDewpointWater temp
2015-May-19 11:33N 37°41' W 071°25'1817.1
2015-May-19 10:28N 37°57' W 071°37'1617.2
2015-May-19 09:33N 38°09' W 071°48'1817.7
2015-May-19 08:31N 38°25' W 072°01'2017.3
2015-May-19 07:22N 38°41' W 072°15'1417.1
2015-May-19 06:33N 38°53' W 072°25'1717.2
2015-May-19 05:34N 39°07' W 072°37'1717.4
2015-May-19 04:33N 39°22' W 072°50'1717.4
2015-May-19 03:34N 39°37' W 073°02'1817.6
2015-May-19 02:33N 39°51' W 073°14'1817.5
2015-May-19 01:34N 40°06' W 073°27'1717.2
2015-May-19 00:34N 40°19' W 073°41'1313.1
2015-May-18 23:33N 40°29' W 073°53'10 9.6
2015-May-18 22:34N 40°35' W 074°02'6 6.1
2015-May-18 21:33N 40°39' W 074°09'3 2.7
2015-May-18 20:28N 40°41' W 074°08'0 0.0
2015-May-18 19:31N 40°41' W 074°08'0 0.0
2015-May-18 18:31N 40°41' W 074°08'0 0.0
2015-May-18 17:32N 40°41' W 074°08'0 0.0
2015-May-18 16:31N 40°41' W 074°08'0 0.0
2015-May-18 15:31N 40°41' W 074°08'0 0.0
2015-May-18 14:31N 40°41' W 074°08'0 0.0
2015-May-18 13:31N 40°41' W 074°08'0 0.0
2015-May-18 12:32N 40°41' W 074°08'0 0.0
2015-May-18 11:31N 40°41' W 074°08'0 0.0
2015-May-18 10:31N 40°41' W 074°08'0 0.0
2015-May-18 09:31N 40°41' W 074°08'0 0.0
2015-May-18 08:31N 40°41' W 074°08'0 0.0
2015-May-18 07:28N 40°41' W 074°08'0 0.0
2015-May-18 06:32N 40°41' W 074°08'0 0.0
2015-May-18 05:28N 40°41' W 074°08'0 0.0
2015-May-18 04:28N 40°41' W 074°08'0 0.0
2015-May-18 03:31N 40°41' W 074°08'0 0.0
2015-May-18 02:31N 40°41' W 074°08'0 0.0
2015-May-18 01:31N 40°41' W 074°08'0 0.0
2015-May-18 00:31N 40°41' W 074°08'0 0.0
2015-May-17 23:29N 40°41' W 074°08'3 3.3
2015-May-17 22:33N 40°39' W 074°06'9 9.2
2015-May-17 21:33N 40°31' W 073°59'1211.5
2015-May-17 20:33N 40°24' W 073°47'11 8.8
2015-May-17 19:16N 40°13' W 073°46'910.9
2015-May-17 18:27N 40°04' W 073°44'1010.8
2015-May-17 17:33N 39°55' W 073°42'1110.7
2015-May-17 16:33N 39°44' W 073°42'1414.2
2015-May-17 15:33N 39°30' W 073°44'1717.0
2015-May-17 14:33N 39°13' W 073°47'2217.1
2015-May-17 13:15N 38°51' W 073°50'  
Track history (hours):
 
Tides and Currents Weather Stations Pressure Air Temp Water Temp Dewpoint Dewpoint Depression Visibility Wind Speed Wind Dir Waves Ship Positions

New Century 1

Last reported at 2015-May-19 11:33 UTC. Time now 2015-May-27 09:52 UTC.
Position N 37°41' W 071°25'.

Length 200 m; beam 32.3 m.

Type: Cargo ship. MMSI: 355234000.

Date/timePositionNaut miles runAvg speedWind from/ knotsBaromVisibWave heightAir tempDewpointWater temp
2015-May-19 11:33N 37°41' W 071°25'1817.1
2015-May-19 10:28N 37°57' W 071°37'1617.2
2015-May-19 09:33N 38°09' W 071°48'1817.7
2015-May-19 08:31N 38°25' W 072°01'2017.3
2015-May-19 07:22N 38°41' W 072°15'1417.1
2015-May-19 06:33N 38°53' W 072°25'1717.2
2015-May-19 05:34N 39°07' W 072°37'1717.4
2015-May-19 04:33N 39°22' W 072°50'1717.4
2015-May-19 03:34N 39°37' W 073°02'1817.6
2015-May-19 02:33N 39°51' W 073°14'1817.5
2015-May-19 01:34N 40°06' W 073°27'1717.2
2015-May-19 00:34N 40°19' W 073°41'1313.1
2015-May-18 23:33N 40°29' W 073°53'10 9.6
2015-May-18 22:34N 40°35' W 074°02'6 6.1
2015-May-18 21:33N 40°39' W 074°09'3 2.7
2015-May-18 20:28N 40°41' W 074°08'0 0.0
2015-May-18 19:31N 40°41' W 074°08'0 0.0
2015-May-18 18:31N 40°41' W 074°08'0 0.0
2015-May-18 17:32N 40°41' W 074°08'0 0.0
2015-May-18 16:31N 40°41' W 074°08'0 0.0
2015-May-18 15:31N 40°41' W 074°08'0 0.0
2015-May-18 14:31N 40°41' W 074°08'0 0.0
2015-May-18 13:31N 40°41' W 074°08'0 0.0
2015-May-18 12:32N 40°41' W 074°08'0 0.0
2015-May-18 11:31N 40°41' W 074°08'0 0.0
2015-May-18 10:31N 40°41' W 074°08'0 0.0
2015-May-18 09:31N 40°41' W 074°08'0 0.0
2015-May-18 08:31N 40°41' W 074°08'0 0.0
2015-May-18 07:28N 40°41' W 074°08'0 0.0
2015-May-18 06:32N 40°41' W 074°08'0 0.0
2015-May-18 05:28N 40°41' W 074°08'0 0.0
2015-May-18 04:28N 40°41' W 074°08'0 0.0
2015-May-18 03:31N 40°41' W 074°08'0 0.0
2015-May-18 02:31N 40°41' W 074°08'0 0.0
2015-May-18 01:31N 40°41' W 074°08'0 0.0
2015-May-18 00:31N 40°41' W 074°08'0 0.0
2015-May-17 23:29N 40°41' W 074°08'3 3.3
2015-May-17 22:33N 40°39' W 074°06'9 9.2
2015-May-17 21:33N 40°31' W 073°59'1211.5
2015-May-17 20:33N 40°24' W 073°47'11 8.8
2015-May-17 19:16N 40°13' W 073°46'910.9
2015-May-17 18:27N 40°04' W 073°44'1010.8
2015-May-17 17:33N 39°55' W 073°42'1110.7
2015-May-17 16:33N 39°44' W 073°42'1414.2
2015-May-17 15:33N 39°30' W 073°44'1717.0
2015-May-17 14:33N 39°13' W 073°47'2217.1
2015-May-17 13:15N 38°51' W 073°50'  

Dump ship's entire track history